createdAt,value
2022-11-15T00:02:04.633Z,11.35
2022-11-15T00:04:49.830Z,11.38
2022-11-15T00:07:54.473Z,11.43
2022-11-15T00:10:40.146Z,11.49
2022-11-15T00:13:25.458Z,11.42
2022-11-15T00:16:11.056Z,11.43
2022-11-15T00:18:57.785Z,11.45
2022-11-15T00:21:43.192Z,11.45
2022-11-15T00:24:28.571Z,11.53
2022-11-15T00:27:13.876Z,11.59
2022-11-15T00:29:58.989Z,11.63
2022-11-15T00:32:44.327Z,11.66
2022-11-15T00:35:33.138Z,11.75
2022-11-15T00:38:18.204Z,11.78
2022-11-15T00:41:09.073Z,11.78
2022-11-15T00:43:54.443Z,11.55
2022-11-15T00:46:39.983Z,11.49
2022-11-15T00:49:25.178Z,11.37
2022-11-15T00:52:10.531Z,11.33
2022-11-15T00:54:55.918Z,11.39
2022-11-15T00:57:41.493Z,11.44
2022-11-15T01:00:26.955Z,11.52
2022-11-15T01:03:12.285Z,11.58
2022-11-15T01:06:00.532Z,11.52
2022-11-15T01:08:45.712Z,11.45
2022-11-15T01:11:31.275Z,11.51
2022-11-15T01:14:17.086Z,11.58
2022-11-15T01:17:04.755Z,11.70
2022-11-15T01:19:49.642Z,11.80
2022-11-15T01:22:34.959Z,11.90
2022-11-15T01:25:19.774Z,11.88
2022-11-15T01:28:05.331Z,11.87
2022-11-15T01:30:50.202Z,11.91
2022-11-15T01:33:36.844Z,11.85
2022-11-15T01:36:22.521Z,11.74
2022-11-15T01:39:08.319Z,11.67
2022-11-15T01:41:53.885Z,11.66
2022-11-15T01:44:50.403Z,11.71
2022-11-15T01:47:41.057Z,11.65
2022-11-15T01:50:29.768Z,11.58
2022-11-15T01:53:14.780Z,11.56
2022-11-15T01:56:02.063Z,11.49
2022-11-15T01:58:47.303Z,11.47
2022-11-15T02:01:33.072Z,11.44
2022-11-15T02:04:30.014Z,11.40
2022-11-15T02:07:17.922Z,11.46
2022-11-15T02:10:17.345Z,11.36
2022-11-15T02:13:02.831Z,11.38
2022-11-15T02:16:15.649Z,11.44
2022-11-15T02:19:28.369Z,11.55
2022-11-15T02:22:51.527Z,11.62
2022-11-15T02:26:16.532Z,11.71
2022-11-15T02:29:13.840Z,11.76
2022-11-15T02:32:19.087Z,11.77
2022-11-15T02:36:15.266Z,11.76
2022-11-15T02:39:35.458Z,11.74
2022-11-15T02:42:54.953Z,11.63
2022-11-15T02:45:47.919Z,11.45
2022-11-15T02:48:33.262Z,11.49
2022-11-15T02:51:18.400Z,11.56
2022-11-15T02:54:03.812Z,11.55
2022-11-15T02:56:49.696Z,11.55
2022-11-15T02:59:48.590Z,11.64
2022-11-15T03:03:16.256Z,11.59
2022-11-15T03:06:22.113Z,11.63
2022-11-15T03:09:56.128Z,11.66
2022-11-15T03:12:46.814Z,11.68
2022-11-15T03:15:38.963Z,11.71
2022-11-15T03:18:30.837Z,11.67
2022-11-15T03:21:16.155Z,11.65
2022-11-15T03:24:03.760Z,11.54
2022-11-15T03:26:49.072Z,11.52
2022-11-15T03:29:38.441Z,11.45
2022-11-15T03:32:26.273Z,11.43
2022-11-15T03:35:25.684Z,11.46
2022-11-15T03:38:23.002Z,11.54
2022-11-15T03:41:16.296Z,11.44
2022-11-15T03:44:17.477Z,11.34
2022-11-15T03:47:02.713Z,11.24
2022-11-15T03:49:54.132Z,11.23
2022-11-15T03:52:40.246Z,10.99
2022-11-15T03:55:25.497Z,11.07
2022-11-15T03:58:10.602Z,11.16
2022-11-15T04:00:55.800Z,11.24
2022-11-15T04:03:41.322Z,11.33
2022-11-15T04:06:26.901Z,11.34
2022-11-15T04:09:12.380Z,11.39
2022-11-15T04:11:57.759Z,11.39
2022-11-15T04:15:03.104Z,11.36
2022-11-15T04:17:49.858Z,11.38
2022-11-15T04:20:53.871Z,11.36
2022-11-15T04:23:58.040Z,11.40
2022-11-15T04:26:43.515Z,11.39
2022-11-15T04:29:34.648Z,11.38
2022-11-15T04:32:19.900Z,11.37
2022-11-15T04:35:06.197Z,11.39
2022-11-15T04:37:51.370Z,11.32
2022-11-15T04:40:37.560Z,11.04
2022-11-15T04:43:23.042Z,11.00
2022-11-15T04:46:08.529Z,10.95
2022-11-15T04:48:58.275Z,10.93
2022-11-15T04:51:44.906Z,10.96
2022-11-15T04:54:30.488Z,11.11
2022-11-15T04:57:16.067Z,11.00
2022-11-15T05:00:07.199Z,11.01
2022-11-15T05:03:10.575Z,11.06
2022-11-15T05:05:55.848Z,11.07
2022-11-15T05:08:41.430Z,11.18
2022-11-15T05:11:27.726Z,11.18
2022-11-15T05:14:13.409Z,11.22
2022-11-15T05:16:58.375Z,11.16
2022-11-15T05:19:45.185Z,11.16
2022-11-15T05:22:30.562Z,11.21
2022-11-15T05:25:15.858Z,11.24
2022-11-15T05:28:01.260Z,11.34
2022-11-15T05:30:46.382Z,11.25
2022-11-15T05:33:33.414Z,11.10
2022-11-15T05:36:41.303Z,11.09
2022-11-15T05:39:26.676Z,10.96
2022-11-15T05:42:15.331Z,10.94
2022-11-15T05:45:01.217Z,10.93
2022-11-15T05:47:46.390Z,10.88
2022-11-15T05:50:31.868Z,10.83
2022-11-15T05:53:18.742Z,10.82
2022-11-15T05:56:06.111Z,10.78
2022-11-15T05:58:59.082Z,10.82
2022-11-15T06:01:44.881Z,10.89
2022-11-15T06:04:30.079Z,10.90
2022-11-15T06:07:15.161Z,10.83
2022-11-15T06:10:00.475Z,10.86
2022-11-15T06:12:45.757Z,10.92
2022-11-15T06:15:33.711Z,10.76
2022-11-15T06:18:19.042Z,10.65
2022-11-15T06:21:04.522Z,10.60
2022-11-15T06:23:49.794Z,10.60
2022-11-15T06:26:35.068Z,10.57
2022-11-15T06:29:20.405Z,10.64
2022-11-15T06:32:05.718Z,10.73
2022-11-15T06:34:51.506Z,10.66
2022-11-15T06:37:36.703Z,10.74
2022-11-15T06:40:22.256Z,10.89
2022-11-15T06:43:08.144Z,10.98
2022-11-15T06:45:53.086Z,11.00
2022-11-15T06:48:38.702Z,11.04
2022-11-15T06:51:24.206Z,11.09
2022-11-15T06:54:09.547Z,11.13
2022-11-15T06:56:54.928Z,11.15
2022-11-15T06:59:40.782Z,11.02
2022-11-15T07:02:26.726Z,10.90
2022-11-15T07:05:12.793Z,10.82
2022-11-15T07:07:58.529Z,10.83
2022-11-15T07:10:43.749Z,10.86
2022-11-15T07:13:33.807Z,10.94
2022-11-15T07:16:20.036Z,10.97
2022-11-15T07:19:05.166Z,11.10
2022-11-15T07:21:50.586Z,11.20
2022-11-15T07:24:35.953Z,11.28
2022-11-15T07:27:21.439Z,11.28
2022-11-15T07:30:08.344Z,11.35
2022-11-15T07:32:57.817Z,11.39
2022-11-15T07:35:43.396Z,11.47
2022-11-15T07:38:29.189Z,11.57
2022-11-15T07:41:14.353Z,11.53
2022-11-15T07:43:59.728Z,11.52
2022-11-15T07:46:45.099Z,11.67
2022-11-15T07:49:30.147Z,11.74
2022-11-15T07:52:15.108Z,11.79
2022-11-15T07:55:00.630Z,11.70
2022-11-15T07:57:46.291Z,10.79
2022-11-15T08:00:32.032Z,10.02
2022-11-15T08:03:17.777Z,10.46
2022-11-15T08:06:04.031Z,10.96
2022-11-15T08:08:49.753Z,11.26
2022-11-15T08:11:35.238Z,11.50
2022-11-15T08:14:22.450Z,11.73
2022-11-15T08:17:08.204Z,11.92
2022-11-15T08:19:53.464Z,11.53
2022-11-15T08:22:38.693Z,10.60
2022-11-15T08:25:26.669Z,9.85
2022-11-15T08:28:11.907Z,9.77
2022-11-15T08:30:57.782Z,10.40
2022-11-15T08:33:44.392Z,10.98
2022-11-15T08:36:39.604Z,11.29
2022-11-15T08:39:29.982Z,11.55
2022-11-15T08:42:19.786Z,11.76
2022-11-15T08:45:06.454Z,12.00
2022-11-15T08:47:54.446Z,12.21
2022-11-15T08:50:39.995Z,12.20
2022-11-15T08:53:25.364Z,11.36
2022-11-15T08:56:13.411Z,10.63
2022-11-15T08:58:58.581Z,10.45
2022-11-15T09:01:43.838Z,11.19
2022-11-15T09:04:29.258Z,11.73
2022-11-15T09:07:14.760Z,12.08
2022-11-15T09:10:01.313Z,12.40
2022-11-15T09:12:48.791Z,12.63
2022-11-15T09:15:34.131Z,12.22
2022-11-15T09:18:22.989Z,11.41
2022-11-15T09:21:09.057Z,10.76
2022-11-15T09:23:54.539Z,10.93
2022-11-15T09:26:40.478Z,11.71
2022-11-15T09:29:27.029Z,12.28
2022-11-15T09:32:12.250Z,12.65
2022-11-15T09:34:58.086Z,12.59
2022-11-15T09:37:43.771Z,11.78
2022-11-15T09:40:30.536Z,11.09
2022-11-15T09:43:41.255Z,10.57
2022-11-15T09:46:51.158Z,10.66
2022-11-15T09:49:39.139Z,11.67
2022-11-15T09:52:12.856Z,12.26
2022-11-15T09:54:53.801Z,12.69
2022-11-15T09:57:24.646Z,13.03
2022-11-15T10:00:44.852Z,12.78
2022-11-15T10:03:26.524Z,11.85
2022-11-15T10:05:57.467Z,12.11
2022-11-15T10:08:58.715Z,12.67
2022-11-15T10:11:37.379Z,13.08
2022-11-15T10:14:16.596Z,12.74
2022-11-15T10:16:59.486Z,11.99
2022-11-15T10:20:22.741Z,11.33
2022-11-15T10:22:52.407Z,11.54
2022-11-15T10:25:23.047Z,12.08
2022-11-15T10:28:00.234Z,12.53
2022-11-15T10:30:35.519Z,12.89
2022-11-15T10:33:24.061Z,13.02
2022-11-15T10:36:13.228Z,12.27
2022-11-15T10:38:49.178Z,11.51
2022-11-15T10:41:32.264Z,10.96
2022-11-15T10:44:12.272Z,10.60
2022-11-15T10:46:48.617Z,10.36
2022-11-15T10:49:23.312Z,10.65
2022-11-15T10:51:54.791Z,11.47
2022-11-15T10:54:40.666Z,12.17
2022-11-15T10:57:18.337Z,12.70
2022-11-15T10:59:50.652Z,13.01
2022-11-15T11:02:42.379Z,13.19
2022-11-15T11:05:39.700Z,12.71
2022-11-15T11:08:16.964Z,11.82
2022-11-15T11:11:02.740Z,11.24
2022-11-15T11:13:40.295Z,11.44
2022-11-15T11:16:15.838Z,12.02
2022-11-15T11:18:55.395Z,12.49
2022-11-15T11:22:15.670Z,12.81
2022-11-15T11:25:24.341Z,13.15
2022-11-15T11:28:29.521Z,12.75
2022-11-15T11:31:20.642Z,11.78
2022-11-15T11:34:11.855Z,11.18
2022-11-15T11:36:58.298Z,10.79
2022-11-15T11:39:38.266Z,11.17
2022-11-15T11:42:58.498Z,11.98
2022-11-15T11:45:49.710Z,12.73
2022-11-15T11:48:38.260Z,13.17
2022-11-15T11:51:21.307Z,13.45
2022-11-15T11:54:23.866Z,13.06
2022-11-15T11:56:50.703Z,12.20
2022-11-15T11:59:41.573Z,11.61
2022-11-15T12:02:29.305Z,11.18
2022-11-15T12:05:09.034Z,10.87
2022-11-15T12:07:35.668Z,10.66
2022-11-15T12:10:22.734Z,11.21
2022-11-15T12:13:12.089Z,12.06
2022-11-15T12:15:46.319Z,12.68
2022-11-15T12:18:15.107Z,13.12
2022-11-15T12:21:11.338Z,13.46
2022-11-15T12:23:43.971Z,13.75
2022-11-15T12:26:24.272Z,13.19
2022-11-15T12:29:32.152Z,12.42
2022-11-15T12:32:00.422Z,11.79
2022-11-15T12:34:46.340Z,11.41
2022-11-15T12:37:41.033Z,11.05
2022-11-15T12:40:21.314Z,10.75
2022-11-15T12:45:43.338Z,12.00
2022-11-15T12:48:18.785Z,12.55
2022-11-15T12:50:52.176Z,12.97
2022-11-15T12:53:28.045Z,13.31
2022-11-15T12:56:12.689Z,13.57
2022-11-15T12:58:57.553Z,13.82
2022-11-15T13:01:33.674Z,13.25
2022-11-15T13:04:19.192Z,12.45
2022-11-15T13:07:05.445Z,11.82
2022-11-15T13:09:51.068Z,11.34
2022-11-15T13:12:26.717Z,10.97
2022-11-15T13:15:00.299Z,10.77
2022-11-15T13:17:52.251Z,11.34
2022-11-15T13:20:39.037Z,12.24
2022-11-15T13:23:11.137Z,12.91
2022-11-15T13:26:08.546Z,13.33
2022-11-15T13:28:46.591Z,13.68
2022-11-15T13:31:48.890Z,13.98
2022-11-15T13:37:21.147Z,13.71
2022-11-15T13:39:48.813Z,13.02
2022-11-15T13:42:16.960Z,12.47
2022-11-15T13:45:01.994Z,12.03
2022-11-15T13:47:29.766Z,11.62
2022-11-15T13:50:01.361Z,11.42
2022-11-15T13:52:31.995Z,11.98
2022-11-15T13:55:11.518Z,12.69
2022-11-15T13:57:51.659Z,13.18
2022-11-15T14:00:43.629Z,13.49
2022-11-15T14:03:28.133Z,13.72
2022-11-15T14:06:15.774Z,13.88
2022-11-15T14:09:15.300Z,13.98
2022-11-15T14:11:55.438Z,13.81
2022-11-15T14:14:24.455Z,12.94
2022-11-15T14:16:59.575Z,12.23
2022-11-15T14:19:26.227Z,11.63
2022-11-15T14:22:28.805Z,11.14
2022-11-15T14:25:34.516Z,11.21
2022-11-15T14:28:22.598Z,11.99
2022-11-15T14:30:51.218Z,12.42
2022-11-15T14:33:20.590Z,12.63
2022-11-15T14:35:47.224Z,12.78
2022-11-15T14:38:14.303Z,12.90
2022-11-15T14:40:41.289Z,13.01
2022-11-15T14:43:10.707Z,13.10
2022-11-15T14:45:37.294Z,13.17
2022-11-15T14:48:03.967Z,13.21
2022-11-15T14:50:30.414Z,13.21
2022-11-15T14:52:57.254Z,13.16
2022-11-15T14:55:25.762Z,12.56
2022-11-15T14:57:52.994Z,11.67
2022-11-15T15:00:20.261Z,10.93
2022-11-15T15:02:47.735Z,10.34
2022-11-15T15:05:23.875Z,9.92
2022-11-15T15:07:50.880Z,10.25
2022-11-15T15:10:40.163Z,10.80
2022-11-15T15:13:05.111Z,11.22
2022-11-15T15:15:38.153Z,11.44
2022-11-15T15:18:05.415Z,11.62
2022-11-15T15:20:32.765Z,11.77
2022-11-15T15:22:59.194Z,11.87
2022-11-15T15:25:35.092Z,11.95
2022-11-15T15:28:02.096Z,12.01
2022-11-15T15:30:32.917Z,11.60
2022-11-15T15:32:59.637Z,10.64
2022-11-15T15:35:31.049Z,9.83
2022-11-15T15:37:57.653Z,9.22
2022-11-15T15:40:24.697Z,8.72
2022-11-15T15:42:51.236Z,8.33
2022-11-15T15:45:18.361Z,8.64
2022-11-15T15:47:45.635Z,9.30
2022-11-15T15:50:22.618Z,9.79
2022-11-15T15:52:50.785Z,10.14
2022-11-15T15:55:17.331Z,10.37
2022-11-15T15:57:43.855Z,10.56
2022-11-15T16:00:11.517Z,10.71
2022-11-15T16:02:41.122Z,10.85
2022-11-15T16:05:08.855Z,10.98
2022-11-15T16:07:35.489Z,11.10
2022-11-15T16:10:05.230Z,11.21
2022-11-15T16:12:34.238Z,11.28
2022-11-15T16:15:01.586Z,11.32
2022-11-15T16:17:34.658Z,11.19
2022-11-15T16:20:01.535Z,10.32
2022-11-15T16:22:29.581Z,9.43
2022-11-15T16:24:56.841Z,8.70
2022-11-15T16:27:23.466Z,8.10
2022-11-15T16:29:50.100Z,7.62
2022-11-15T16:32:16.728Z,7.21
2022-11-15T16:34:48.547Z,6.85
2022-11-15T16:37:23.160Z,6.48
2022-11-15T16:39:49.960Z,6.15
2022-11-15T16:42:16.497Z,5.86
2022-11-15T16:44:44.363Z,5.61
2022-11-15T16:47:20.069Z,5.48
2022-11-15T16:49:46.952Z,6.72
2022-11-15T16:52:17.492Z,7.74
2022-11-15T16:54:46.680Z,8.18
2022-11-15T16:57:13.111Z,8.53
2022-11-15T16:59:39.462Z,8.85
2022-11-15T17:02:13.190Z,9.15
2022-11-15T17:04:39.879Z,9.42
2022-11-15T17:07:06.460Z,9.64
2022-11-15T17:09:33.873Z,9.82
2022-11-15T17:12:00.423Z,9.92
2022-11-15T17:14:26.940Z,10.01
2022-11-15T17:16:54.769Z,10.06
2022-11-15T17:19:21.305Z,10.12
2022-11-15T17:21:51.010Z,10.20
2022-11-15T17:24:17.687Z,10.26
2022-11-15T17:26:44.235Z,9.88
2022-11-15T17:29:10.807Z,8.92
2022-11-15T17:31:39.039Z,7.95
2022-11-15T17:34:05.976Z,7.23
2022-11-15T17:36:32.819Z,6.69
2022-11-15T17:38:59.931Z,6.32
2022-11-15T17:41:27.887Z,6.00
2022-11-15T17:43:59.175Z,6.08
2022-11-15T17:46:26.327Z,6.95
2022-11-15T17:48:52.965Z,7.86
2022-11-15T17:51:19.412Z,9.02
2022-11-15T17:53:46.763Z,9.33
2022-11-15T17:56:15.719Z,9.44
2022-11-15T17:58:46.304Z,9.56
2022-11-15T18:01:19.853Z,9.69
2022-11-15T18:03:46.811Z,9.84
2022-11-15T18:06:13.879Z,9.95
2022-11-15T18:08:42.658Z,10.02
2022-11-15T18:11:21.187Z,10.11
2022-11-15T18:13:52.521Z,10.22
2022-11-15T18:16:21.437Z,10.34
2022-11-15T18:18:47.886Z,10.33
2022-11-15T18:21:28.654Z,9.52
2022-11-15T18:23:57.185Z,8.46
2022-11-15T18:26:27.172Z,7.66
2022-11-15T18:29:02.519Z,7.08
2022-11-15T18:31:30.110Z,6.59
2022-11-15T18:33:58.797Z,6.20
2022-11-15T18:36:27.403Z,6.17
2022-11-15T18:38:55.305Z,6.85
2022-11-15T18:41:24.685Z,7.45
2022-11-15T18:43:51.981Z,7.92
2022-11-15T18:46:19.945Z,8.31
2022-11-15T18:48:49.743Z,8.62
2022-11-15T18:51:19.607Z,8.84
2022-11-15T18:53:46.424Z,9.02
2022-11-15T18:56:17.019Z,9.22
2022-11-15T18:58:48.444Z,9.37
2022-11-15T19:01:16.741Z,9.54
2022-11-15T19:03:45.911Z,9.68
2022-11-15T19:06:17.610Z,9.82
2022-11-15T19:08:45.578Z,9.96
2022-11-15T19:11:14.828Z,10.08
2022-11-15T19:13:42.254Z,10.13
2022-11-15T19:16:12.025Z,10.11
2022-11-15T19:18:38.512Z,9.36
2022-11-15T19:21:14.841Z,8.39
2022-11-15T19:23:42.713Z,7.56
2022-11-15T19:26:14.862Z,6.94
2022-11-15T19:28:41.526Z,6.43
2022-11-15T19:31:11.654Z,6.02
2022-11-15T19:33:38.502Z,5.69
2022-11-15T19:36:16.580Z,5.42
2022-11-15T19:38:43.205Z,5.16
2022-11-15T19:41:14.911Z,4.96
2022-11-15T19:43:41.443Z,5.39
2022-11-15T19:46:11.044Z,6.36
2022-11-15T19:48:37.769Z,7.06
2022-11-15T19:51:15.811Z,7.54
2022-11-15T19:53:42.662Z,7.92
2022-11-15T19:56:15.654Z,8.12
2022-11-15T19:58:42.525Z,8.39
2022-11-15T20:01:21.176Z,8.64
2022-11-15T20:03:49.510Z,8.91
2022-11-15T20:06:21.443Z,9.12
2022-11-15T20:08:48.077Z,9.30
2022-11-15T20:11:14.695Z,9.45
2022-11-15T20:13:41.348Z,9.55
2022-11-15T20:16:08.760Z,9.65
2022-11-15T20:18:35.696Z,9.77
2022-11-15T20:21:06.036Z,9.82
2022-11-15T20:23:32.804Z,9.90
2022-11-15T20:25:59.168Z,9.98
2022-11-15T20:28:27.206Z,10.06
2022-11-15T20:30:57.247Z,10.08
2022-11-15T20:33:24.601Z,10.10
2022-11-15T20:35:51.130Z,10.05
2022-11-15T20:38:18.523Z,10.03
2022-11-15T20:40:46.116Z,10.06
2022-11-15T20:43:14.273Z,10.10
2022-11-15T20:45:45.369Z,10.18
2022-11-15T20:48:15.391Z,10.26
2022-11-15T20:50:43.744Z,10.34
2022-11-15T20:53:12.165Z,10.45
2022-11-15T20:55:43.234Z,10.54
2022-11-15T20:58:09.895Z,10.55
2022-11-15T21:00:36.583Z,10.54
2022-11-15T21:03:06.911Z,10.55
2022-11-15T21:05:36.978Z,10.59
2022-11-15T21:08:03.592Z,10.63
2022-11-15T21:10:48.527Z,10.67
2022-11-15T21:13:15.639Z,10.06
2022-11-15T21:15:42.533Z,9.15
2022-11-15T21:18:09.114Z,8.40
2022-11-15T21:20:35.964Z,8.08
2022-11-15T21:23:03.062Z,8.94
2022-11-15T21:25:29.858Z,10.32
2022-11-15T21:27:56.329Z,11.24
2022-11-15T21:30:22.875Z,11.78
2022-11-15T21:32:49.617Z,11.31
2022-11-15T21:35:16.256Z,10.13
2022-11-15T21:37:42.806Z,9.13
2022-11-15T21:40:10.156Z,8.39
2022-11-15T21:42:36.607Z,7.76
2022-11-15T21:45:03.582Z,7.29
2022-11-15T21:47:29.981Z,6.94
2022-11-15T21:49:56.447Z,7.21
2022-11-15T21:52:22.858Z,9.23
2022-11-15T21:54:49.319Z,10.82
2022-11-15T21:57:15.756Z,11.52
2022-11-15T22:00:00.726Z,11.55
2022-11-15T22:02:27.175Z,10.77
2022-11-15T22:04:53.808Z,9.73
2022-11-15T22:07:20.544Z,8.93
2022-11-15T22:09:47.331Z,8.50
2022-11-15T22:12:14.006Z,9.34
2022-11-15T22:14:40.742Z,10.12
2022-11-15T22:17:07.336Z,10.56
2022-11-15T22:19:34.660Z,11.42
2022-11-15T22:22:01.528Z,11.89
2022-11-15T22:24:28.565Z,12.37
2022-11-15T22:26:55.254Z,12.54
2022-11-15T22:29:21.850Z,11.55
2022-11-15T22:31:48.514Z,10.35
2022-11-15T22:34:15.135Z,9.36
2022-11-15T22:37:12.975Z,8.66
2022-11-15T22:39:31.458Z,7.99
2022-11-15T22:41:58.541Z,7.58
2022-11-15T22:44:24.982Z,8.11
2022-11-15T22:46:51.486Z,8.90
2022-11-15T22:49:17.962Z,9.29
2022-11-15T22:51:44.464Z,9.59
2022-11-15T22:54:10.992Z,9.82
2022-11-15T22:56:37.921Z,10.05
2022-11-15T22:59:04.368Z,10.26
2022-11-15T23:01:30.882Z,10.45
2022-11-15T23:03:57.435Z,10.64
2022-11-15T23:06:23.978Z,10.81
2022-11-15T23:08:50.450Z,10.92
2022-11-15T23:11:35.902Z,11.05
2022-11-15T23:14:02.389Z,11.16
2022-11-15T23:16:35.120Z,11.28
2022-11-15T23:19:07.364Z,11.40
2022-11-15T23:21:58.411Z,11.49
2022-11-15T23:24:25.065Z,11.60
2022-11-15T23:26:56.439Z,11.67
2022-11-15T23:29:24.538Z,11.75
2022-11-15T23:32:10.962Z,11.83
2022-11-15T23:34:43.417Z,11.89
2022-11-15T23:37:12.130Z,11.35
2022-11-15T23:39:38.709Z,10.39
2022-11-15T23:42:09.097Z,9.57
2022-11-15T23:44:36.432Z,8.97
2022-11-15T23:47:02.938Z,9.34
2022-11-15T23:49:29.401Z,10.28
2022-11-15T23:51:55.948Z,10.74
2022-11-15T23:54:22.471Z,11.04
2022-11-15T23:56:48.965Z,10.87
2022-11-15T23:59:15.499Z,10.92
